Aviation Digital Data Service (ADDS)

Output produced by METARs form (1856 UTC 25 March 2019)
found at http://www.aviationweather.gov/metar/data/
 
Forecast for: DXXX (LOME/TOKOIN (MIL, TG)
Text: TAF DXXX 251700Z 2518/2624 20010KT 9999 FEW013
Forecast period: 1800 UTC 25 March 2019 to 0000 UTC 27 March 2019
Forecast type: FROM: standard forecast or significant change
Winds: from the SSW (200 degrees) at 12 MPH (10 knots; 5.1 m/s)
Visibility: 6 or more miles 10+ km)
Ceiling: at least 12,000 feet AGL
Clouds: few clouds at 1300 feet AGL
Weather: no significant weather forecast for this period